Cape Express — HO5337 — position and weather

sailwx.info

Track history (hours):
 
Tides and Currents Weather Stations Pressure Air Temp Water Temp Dewpoint Dewpoint Depression Visibility Wind Speed Wind Dir Waves Ship Positions

Cape Express

Last reported at 2017-Dec-11 12:44 UTC. Time now 2017-Dec-13 07:03 UTC.
Position N 25°57' W 079°34'.

Length 29 m; draft 2.1 m.

Type: Cargo ship. MMSI: 370269000.

Date/timePositionNaut miles runAvg speedWind from/ knotsBaromVisibWave heightAir tempDewpointWater temp
2017-Dec-11 12:44N 25°57' W 079°34'2 8.4
2017-Dec-11 12:29N 25°58' W 079°36'4 8.4
2017-Dec-11 12:00N 25°59' W 079°40'4 8.7
2017-Dec-11 11:30N 26°00' W 079°45'4 8.9
2017-Dec-11 11:00N 26°02' W 079°50'5 9.1
2017-Dec-11 10:30N 26°03' W 079°54'510.2
2017-Dec-11 10:00N 26°04' W 079°60'510.1
2017-Dec-11 09:30N 26°06' W 080°05'3 5.9
2017-Dec-11 09:00N 26°04' W 080°08'0 0.1
2017-Dec-11 08:30N 26°04' W 080°08'0 0.0
2017-Dec-11 08:00N 26°04' W 080°08'0 0.0
2017-Dec-11 07:30N 26°04' W 080°08'0 0.0
2017-Dec-11 07:00N 26°04' W 080°08'0 0.0
2017-Dec-11 06:30N 26°04' W 080°08'0 0.0
2017-Dec-11 06:00N 26°04' W 080°08'0 0.0
2017-Dec-11 05:30N 26°04' W 080°08'0 0.0
2017-Dec-11 05:00N 26°04' W 080°08'0 0.0
2017-Dec-11 04:30N 26°04' W 080°08'0 0.0
2017-Dec-11 04:00N 26°04' W 080°08'0 0.0
2017-Dec-11 03:30N 26°04' W 080°08'0 0.0
2017-Dec-11 03:00N 26°04' W 080°08'0 0.0
2017-Dec-11 02:30N 26°04' W 080°08'0 0.0
2017-Dec-11 02:00N 26°04' W 080°08'0 0.0
2017-Dec-11 01:30N 26°04' W 080°08'0 0.0
2017-Dec-11 01:00N 26°04' W 080°08'0 0.0
2017-Dec-11 00:30N 26°04' W 080°08'0 0.0
2017-Dec-11 00:00N 26°04' W 080°08'0 0.0
2017-Dec-10 23:30N 26°04' W 080°08'0 0.0
2017-Dec-10 23:00N 26°04' W 080°08'0 0.0
2017-Dec-10 22:30N 26°04' W 080°08'0 0.0
2017-Dec-10 22:00N 26°04' W 080°08'0 0.0
2017-Dec-10 21:30N 26°04' W 080°08'0 0.0
2017-Dec-10 21:00N 26°04' W 080°08'0 0.0
2017-Dec-10 20:30N 26°04' W 080°08'0 0.0
2017-Dec-10 20:00N 26°04' W 080°08'0 0.0
2017-Dec-10 19:30N 26°04' W 080°08'0 0.0
2017-Dec-10 19:00N 26°04' W 080°08'0 0.0
2017-Dec-10 18:30N 26°04' W 080°08'0 0.0
2017-Dec-10 18:00N 26°04' W 080°08'0 0.0
2017-Dec-10 17:30N 26°04' W 080°08'0 0.0
2017-Dec-10 17:00N 26°04' W 080°08'0 0.0
2017-Dec-10 16:30N 26°04' W 080°08'0 0.0
2017-Dec-10 16:00N 26°04' W 080°08'0 0.0
2017-Dec-10 15:30N 26°04' W 080°08'0 0.0
2017-Dec-10 15:00N 26°04' W 080°08'0 0.0
2017-Dec-10 14:30N 26°04' W 080°08'0 0.0
2017-Dec-10 14:00N 26°04' W 080°08'0 0.0
2017-Dec-10 13:30N 26°04' W 080°08'0 0.0
2017-Dec-10 13:00N 26°04' W 080°08'0 0.0
2017-Dec-10 12:30N 26°04' W 080°08'0 0.0
2017-Dec-10 12:00N 26°04' W 080°08'0 0.0
2017-Dec-10 11:30N 26°04' W 080°08'0 0.0
2017-Dec-10 11:00N 26°04' W 080°08'0 0.0
2017-Dec-10 10:30N 26°04' W 080°08'0 0.0
2017-Dec-10 10:00N 26°04' W 080°08'0 0.0
2017-Dec-10 09:30N 26°04' W 080°08'0 0.0
2017-Dec-10 09:00N 26°04' W 080°08'0 0.0
2017-Dec-10 08:30N 26°04' W 080°08'0 0.0
2017-Dec-10 08:00N 26°04' W 080°08'0 0.0
2017-Dec-10 07:30N 26°04' W 080°08'0 0.0
2017-Dec-10 07:00N 26°04' W 080°08'0 0.0
2017-Dec-10 06:30N 26°04' W 080°08'0 0.0
2017-Dec-10 06:00N 26°04' W 080°08'0 0.0
2017-Dec-10 05:30N 26°04' W 080°08'0 0.0
2017-Dec-10 05:00N 26°04' W 080°08'0 0.0
2017-Dec-10 04:29N 26°04' W 080°08'0 0.0
2017-Dec-10 04:00N 26°04' W 080°08'0 0.0
2017-Dec-10 03:30N 26°04' W 080°08'0 0.0
2017-Dec-10 03:00N 26°04' W 080°08'0 0.0
2017-Dec-10 02:30N 26°04' W 080°08'0 0.0
2017-Dec-10 02:00N 26°04' W 080°08'0 0.0
2017-Dec-10 01:30N 26°04' W 080°08'0 0.0
2017-Dec-10 01:00N 26°04' W 080°08'0 0.0
2017-Dec-10 00:30N 26°04' W 080°08'0 0.0
2017-Dec-10 00:00N 26°04' W 080°08'0 0.0
2017-Dec-09 23:30N 26°04' W 080°08'0 0.0
2017-Dec-09 23:00N 26°04' W 080°08'0 0.0
2017-Dec-09 22:30N 26°04' W 080°08'0 0.0
2017-Dec-09 22:00N 26°04' W 080°08'0 0.0
2017-Dec-09 21:30N 26°04' W 080°08'0 0.0
2017-Dec-09 21:00N 26°04' W 080°08'0 0.0
2017-Dec-09 20:30N 26°04' W 080°08'0 0.0
2017-Dec-09 20:00N 26°04' W 080°08'0 0.0
2017-Dec-09 19:30N 26°04' W 080°08'0 0.0
2017-Dec-09 19:00N 26°04' W 080°08'0 0.0
2017-Dec-09 18:30N 26°04' W 080°08'0 0.0
2017-Dec-09 18:00N 26°04' W 080°08'0 0.0
2017-Dec-09 17:30N 26°04' W 080°08'0 0.0
2017-Dec-09 17:00N 26°04' W 080°08'0 0.0
2017-Dec-09 16:30N 26°04' W 080°08'0 0.0
2017-Dec-09 16:00N 26°04' W 080°08'0 0.0
2017-Dec-09 15:30N 26°04' W 080°08'0 0.0
2017-Dec-09 15:00N 26°04' W 080°08'0 0.0
2017-Dec-09 14:30N 26°04' W 080°08'0 0.0
2017-Dec-09 14:00N 26°04' W 080°08'0 0.0
2017-Dec-09 13:30N 26°04' W 080°08'0 0.0
2017-Dec-09 13:00N 26°04' W 080°08'0 0.0
2017-Dec-09 12:30N 26°04' W 080°08'0 0.0
2017-Dec-09 12:00N 26°04' W 080°08'0 0.0
2017-Dec-09 11:30N 26°04' W 080°08'0 0.0
2017-Dec-09 11:00N 26°04' W 080°08'0 0.0
2017-Dec-09 10:29N 26°04' W 080°08'0 0.0
2017-Dec-09 10:00N 26°04' W 080°08'0 0.0
2017-Dec-09 09:30N 26°04' W 080°08'0 0.0
2017-Dec-09 09:00N 26°04' W 080°08'0 0.0
2017-Dec-09 08:30N 26°04' W 080°08'0 0.0
2017-Dec-09 08:00N 26°04' W 080°08'0 0.0
2017-Dec-09 07:30N 26°04' W 080°08'0 0.0
2017-Dec-09 07:00N 26°04' W 080°08'0 0.0
2017-Dec-09 06:30N 26°04' W 080°08'0 0.0
2017-Dec-09 06:00N 26°04' W 080°08'0 0.0
2017-Dec-09 05:30N 26°04' W 080°08'0 0.0
2017-Dec-09 05:00N 26°04' W 080°08'0 0.0
2017-Dec-09 04:30N 26°04' W 080°08'0 0.0
2017-Dec-09 04:00N 26°04' W 080°08'0 0.0
2017-Dec-09 03:30N 26°04' W 080°08'0 0.0
2017-Dec-09 03:00N 26°04' W 080°08'0 0.0
2017-Dec-09 02:30N 26°04' W 080°08'0 0.0
2017-Dec-09 02:00N 26°04' W 080°08'0 0.0
2017-Dec-09 01:30N 26°04' W 080°08'0 0.0
2017-Dec-09 01:00N 26°04' W 080°08'0 0.0
2017-Dec-09 00:30N 26°04' W 080°08'0 0.0
2017-Dec-09 00:00N 26°04' W 080°08'0 0.0
2017-Dec-08 23:30N 26°04' W 080°08'0 0.0
2017-Dec-08 23:00N 26°04' W 080°08'0 0.0
2017-Dec-08 22:30N 26°04' W 080°08'0 0.0
2017-Dec-08 22:00N 26°04' W 080°08'0 0.0
2017-Dec-08 21:30N 26°04' W 080°08'0 0.0
2017-Dec-08 21:00N 26°04' W 080°08'0 0.0
2017-Dec-08 20:30N 26°04' W 080°08'0 0.0
2017-Dec-08 20:00N 26°04' W 080°08'0 0.0
2017-Dec-08 19:30N 26°04' W 080°08'0 0.0
2017-Dec-08 19:00N 26°04' W 080°08'0 0.0
2017-Dec-08 18:30N 26°04' W 080°08'0 0.0
2017-Dec-08 18:00N 26°04' W 080°08'0 0.0
2017-Dec-08 17:30N 26°04' W 080°08'0 0.0
2017-Dec-08 17:00N 26°04' W 080°08'0 0.0
2017-Dec-08 16:30N 26°04' W 080°08'0 0.0
2017-Dec-08 16:00N 26°04' W 080°08'0 0.0
2017-Dec-08 15:30N 26°04' W 080°08'0 0.0
2017-Dec-08 15:00N 26°04' W 080°08'0 0.0
2017-Dec-08 14:30N 26°04' W 080°08'0 0.0
2017-Dec-08 14:00N 26°04' W 080°08'0 0.0
2017-Dec-08 13:30N 26°04' W 080°08'0 0.0
2017-Dec-08 13:00N 26°04' W 080°08'0 0.0
2017-Dec-08 12:30N 26°04' W 080°08'0 0.0
2017-Dec-08 12:00N 26°04' W 080°08'0 0.0
2017-Dec-08 11:30N 26°04' W 080°08'0 0.0
2017-Dec-08 11:00N 26°04' W 080°08'0 0.0
2017-Dec-08 10:30N 26°04' W 080°08'0 0.0
2017-Dec-08 10:00N 26°04' W 080°08'0 0.0
2017-Dec-08 09:30N 26°04' W 080°08'0 0.0
2017-Dec-08 09:00N 26°04' W 080°08'0 0.0
2017-Dec-08 08:30N 26°04' W 080°08'0 0.0
2017-Dec-08 08:00N 26°04' W 080°08'0 0.0
2017-Dec-08 07:30N 26°04' W 080°08'0 0.0
2017-Dec-08 07:00N 26°04' W 080°08'0 0.0
2017-Dec-08 06:30N 26°04' W 080°08'0 0.0
2017-Dec-08 06:00N 26°04' W 080°08'0 0.0
2017-Dec-08 05:30N 26°04' W 080°08'0 0.0
2017-Dec-08 05:00N 26°04' W 080°08'0 0.0
2017-Dec-08 04:30N 26°04' W 080°08'0 0.0
2017-Dec-08 04:00N 26°04' W 080°08'0 0.0
2017-Dec-08 03:30N 26°04' W 080°08'0 0.0
2017-Dec-08 03:00N 26°04' W 080°08'0 0.3
2017-Dec-08 02:30N 26°04' W 080°08'3 6.8
2017-Dec-08 02:00N 26°05' W 080°04'510.3
2017-Dec-08 01:30N 26°03' W 079°60'510.1
2017-Dec-08 01:00N 26°00' W 079°55'510.4
2017-Dec-08 00:30N 25°58' W 079°49'511.0
2017-Dec-08 00:00N 25°55' W 079°44'610.8
2017-Dec-07 23:29N 25°53' W 079°39'9 0.6
2017-Dec-07 09:11N 25°45' W 079°34'1 8.1
2017-Dec-07 09:00N 25°46' W 079°35'4 8.0
2017-Dec-07 08:30N 25°48' W 079°39'4 8.0
2017-Dec-07 08:00N 25°50' W 079°42'4 7.6
2017-Dec-07 07:30N 25°53' W 079°46'4 7.6
2017-Dec-07 07:00N 25°55' W 079°49'4 7.4
2017-Dec-07 06:30N 25°57' W 079°52'4 7.7
2017-Dec-07 06:00N 25°60' W 079°55'4 7.4
2017-Dec-07 05:30N 26°02' W 079°59'4 7.4
2017-Dec-07 05:00N 26°04' W 080°02'4 9.0
2017-Dec-07 04:30N 26°06' W 080°07'2 4.2
2017-Dec-07 04:00N 26°04' W 080°08'0 0.0
2017-Dec-07 03:30N 26°04' W 080°08'0 0.0
2017-Dec-07 03:00N 26°04' W 080°08'0 0.0
2017-Dec-07 02:30N 26°04' W 080°08'0 0.0
2017-Dec-07 02:00N 26°04' W 080°08'0 0.0
2017-Dec-07 01:30N 26°04' W 080°08'0 0.0
2017-Dec-07 01:00N 26°04' W 080°08'0 0.0
2017-Dec-07 00:30N 26°04' W 080°08'0 0.0
2017-Dec-07 00:00N 26°04' W 080°08'0 0.0
2017-Dec-06 23:30N 26°04' W 080°08'0 0.0
2017-Dec-06 23:00N 26°04' W 080°08'0 0.0
2017-Dec-06 22:30N 26°04' W 080°08'3 5.3
2017-Dec-06 22:00N 26°06' W 080°06'4 7.8
2017-Dec-06 21:30N 26°04' W 080°02'510.8
2017-Dec-06 21:00N 26°03' W 079°56'  
2017-Dec-03 09:02N 25°52' W 079°38'1 7.2
2017-Dec-03 08:58N 25°53' W 079°38'4 7.0
2017-Dec-03 08:27N 25°54' W 079°42'3 6.6
2017-Dec-03 08:00N 25°56' W 079°45'3 6.5
2017-Dec-03 07:30N 25°57' W 079°48'3 6.7
2017-Dec-03 07:00N 25°59' W 079°51'3 6.6
2017-Dec-03 06:30N 26°01' W 079°54'3 6.1
2017-Dec-03 06:00N 26°02' W 079°57'3 6.1
2017-Dec-03 05:30N 26°04' W 080°00'3 7.0
2017-Dec-03 05:00N 26°05' W 080°04'3 6.0
2017-Dec-03 04:30N 26°04' W 080°07'1 2.3
2017-Dec-03 04:00N 26°04' W 080°08'0 0.0
2017-Dec-03 03:30N 26°04' W 080°08'0 0.0
2017-Dec-03 03:00N 26°04' W 080°08'0 0.0
2017-Dec-03 02:30N 26°04' W 080°08'0 0.0
2017-Dec-03 02:00N 26°04' W 080°08'0 0.0
2017-Dec-03 01:30N 26°04' W 080°08'0 0.0
2017-Dec-03 01:00N 26°04' W 080°08'0 0.0
2017-Dec-03 00:30N 26°04' W 080°08'0 0.0
2017-Dec-03 00:00N 26°04' W 080°08'0 0.0
2017-Dec-02 23:30N 26°04' W 080°08'0 0.0
2017-Dec-02 23:00N 26°04' W 080°08'0 0.0
2017-Dec-02 22:30N 26°04' W 080°08'0 0.0
2017-Dec-02 22:00N 26°04' W 080°08'0 0.0
2017-Dec-02 21:30N 26°04' W 080°08'0 0.0
2017-Dec-02 21:00N 26°04' W 080°08'0 0.0
2017-Dec-02 20:30N 26°04' W 080°08'0 0.0
2017-Dec-02 20:00N 26°04' W 080°08'0 0.0
2017-Dec-02 19:30N 26°04' W 080°08'0 0.0
2017-Dec-02 19:00N 26°04' W 080°08'0 0.0
2017-Dec-02 18:30N 26°04' W 080°08'0 0.0
2017-Dec-02 18:01N 26°04' W 080°08'0 0.0
2017-Dec-02 17:30N 26°04' W 080°08'0 0.0
2017-Dec-02 17:00N 26°04' W 080°08'0 0.0
2017-Dec-02 16:30N 26°04' W 080°08'0 0.0
2017-Dec-02 16:00N 26°04' W 080°08'0 0.0
2017-Dec-02 15:30N 26°04' W 080°08'0 0.0
2017-Dec-02 15:00N 26°04' W 080°08'0 0.0
2017-Dec-02 14:30N 26°04' W 080°08'2 4.1
2017-Dec-02 14:00N 26°06' W 080°07'1 2.6
2017-Dec-02 13:30N 26°06' W 080°05'1 1.8
2017-Dec-02 13:00N 26°06' W 080°04'4 8.6
2017-Dec-02 12:30N 26°07' W 079°60'5 9.3
2017-Dec-02 12:00N 26°09' W 079°55'4 8.9
2017-Dec-02 11:30N 26°10' W 079°50'5 8.9
2017-Dec-02 11:00N 26°10' W 079°45'5 8.4
2017-Dec-02 10:27N 26°12' W 079°40'2 0.2
2017-Dec-01 21:09N 26°13' W 079°42'2 9.3
2017-Dec-01 20:59N 26°13' W 079°43'4 9.2
2017-Dec-01 20:30N 26°11' W 079°48'4 9.1
2017-Dec-01 20:00N 26°10' W 079°52'5 9.0
2017-Dec-01 19:30N 26°08' W 079°57'5 9.0
2017-Dec-01 19:00N 26°06' W 080°02'5 9.0
2017-Dec-01 18:30N 26°06' W 080°07'2 4.1
2017-Dec-01 18:00N 26°04' W 080°08'0 0.0
2017-Dec-01 17:30N 26°04' W 080°08'0 0.0
2017-Dec-01 17:00N 26°04' W 080°08'0 0.0
2017-Dec-01 16:30N 26°04' W 080°08'0 0.0
2017-Dec-01 16:00N 26°04' W 080°08'0 0.0
2017-Dec-01 15:30N 26°04' W 080°08'0 0.0
2017-Dec-01 15:00N 26°04' W 080°08'0 0.0
2017-Dec-01 14:30N 26°04' W 080°08'0 0.0
2017-Dec-01 14:00N 26°04' W 080°08'0 0.0
2017-Dec-01 13:30N 26°04' W 080°08'0 0.0
2017-Dec-01 13:00N 26°04' W 080°08'  
Track history (hours):
 
Tides and Currents Weather Stations Pressure Air Temp Water Temp Dewpoint Dewpoint Depression Visibility Wind Speed Wind Dir Waves Ship Positions

Cape Express

Last reported at 2017-Dec-11 12:44 UTC. Time now 2017-Dec-13 07:03 UTC.
Position N 25°57' W 079°34'.

Length 29 m; draft 2.1 m.

Type: Cargo ship. MMSI: 370269000.

Date/timePositionNaut miles runAvg speedWind from/ knotsBaromVisibWave heightAir tempDewpointWater temp
2017-Dec-11 12:44N 25°57' W 079°34'2 8.4
2017-Dec-11 12:29N 25°58' W 079°36'4 8.4
2017-Dec-11 12:00N 25°59' W 079°40'4 8.7
2017-Dec-11 11:30N 26°00' W 079°45'4 8.9
2017-Dec-11 11:00N 26°02' W 079°50'5 9.1
2017-Dec-11 10:30N 26°03' W 079°54'510.2
2017-Dec-11 10:00N 26°04' W 079°60'510.1
2017-Dec-11 09:30N 26°06' W 080°05'3 5.9
2017-Dec-11 09:00N 26°04' W 080°08'0 0.1
2017-Dec-11 08:30N 26°04' W 080°08'0 0.0
2017-Dec-11 08:00N 26°04' W 080°08'0 0.0
2017-Dec-11 07:30N 26°04' W 080°08'0 0.0
2017-Dec-11 07:00N 26°04' W 080°08'0 0.0
2017-Dec-11 06:30N 26°04' W 080°08'0 0.0
2017-Dec-11 06:00N 26°04' W 080°08'0 0.0
2017-Dec-11 05:30N 26°04' W 080°08'0 0.0
2017-Dec-11 05:00N 26°04' W 080°08'0 0.0
2017-Dec-11 04:30N 26°04' W 080°08'0 0.0
2017-Dec-11 04:00N 26°04' W 080°08'0 0.0
2017-Dec-11 03:30N 26°04' W 080°08'0 0.0
2017-Dec-11 03:00N 26°04' W 080°08'0 0.0
2017-Dec-11 02:30N 26°04' W 080°08'0 0.0
2017-Dec-11 02:00N 26°04' W 080°08'0 0.0
2017-Dec-11 01:30N 26°04' W 080°08'0 0.0
2017-Dec-11 01:00N 26°04' W 080°08'0 0.0
2017-Dec-11 00:30N 26°04' W 080°08'0 0.0
2017-Dec-11 00:00N 26°04' W 080°08'0 0.0
2017-Dec-10 23:30N 26°04' W 080°08'0 0.0
2017-Dec-10 23:00N 26°04' W 080°08'0 0.0
2017-Dec-10 22:30N 26°04' W 080°08'0 0.0
2017-Dec-10 22:00N 26°04' W 080°08'0 0.0
2017-Dec-10 21:30N 26°04' W 080°08'0 0.0
2017-Dec-10 21:00N 26°04' W 080°08'0 0.0
2017-Dec-10 20:30N 26°04' W 080°08'0 0.0
2017-Dec-10 20:00N 26°04' W 080°08'0 0.0
2017-Dec-10 19:30N 26°04' W 080°08'0 0.0
2017-Dec-10 19:00N 26°04' W 080°08'0 0.0
2017-Dec-10 18:30N 26°04' W 080°08'0 0.0
2017-Dec-10 18:00N 26°04' W 080°08'0 0.0
2017-Dec-10 17:30N 26°04' W 080°08'0 0.0
2017-Dec-10 17:00N 26°04' W 080°08'0 0.0
2017-Dec-10 16:30N 26°04' W 080°08'0 0.0
2017-Dec-10 16:00N 26°04' W 080°08'0 0.0
2017-Dec-10 15:30N 26°04' W 080°08'0 0.0
2017-Dec-10 15:00N 26°04' W 080°08'0 0.0
2017-Dec-10 14:30N 26°04' W 080°08'0 0.0
2017-Dec-10 14:00N 26°04' W 080°08'0 0.0
2017-Dec-10 13:30N 26°04' W 080°08'0 0.0
2017-Dec-10 13:00N 26°04' W 080°08'0 0.0
2017-Dec-10 12:30N 26°04' W 080°08'0 0.0
2017-Dec-10 12:00N 26°04' W 080°08'0 0.0
2017-Dec-10 11:30N 26°04' W 080°08'0 0.0
2017-Dec-10 11:00N 26°04' W 080°08'0 0.0
2017-Dec-10 10:30N 26°04' W 080°08'0 0.0
2017-Dec-10 10:00N 26°04' W 080°08'0 0.0
2017-Dec-10 09:30N 26°04' W 080°08'0 0.0
2017-Dec-10 09:00N 26°04' W 080°08'0 0.0
2017-Dec-10 08:30N 26°04' W 080°08'0 0.0
2017-Dec-10 08:00N 26°04' W 080°08'0 0.0
2017-Dec-10 07:30N 26°04' W 080°08'0 0.0
2017-Dec-10 07:00N 26°04' W 080°08'0 0.0
2017-Dec-10 06:30N 26°04' W 080°08'0 0.0
2017-Dec-10 06:00N 26°04' W 080°08'0 0.0
2017-Dec-10 05:30N 26°04' W 080°08'0 0.0
2017-Dec-10 05:00N 26°04' W 080°08'0 0.0
2017-Dec-10 04:29N 26°04' W 080°08'0 0.0
2017-Dec-10 04:00N 26°04' W 080°08'0 0.0
2017-Dec-10 03:30N 26°04' W 080°08'0 0.0
2017-Dec-10 03:00N 26°04' W 080°08'0 0.0
2017-Dec-10 02:30N 26°04' W 080°08'0 0.0
2017-Dec-10 02:00N 26°04' W 080°08'0 0.0
2017-Dec-10 01:30N 26°04' W 080°08'0 0.0
2017-Dec-10 01:00N 26°04' W 080°08'0 0.0
2017-Dec-10 00:30N 26°04' W 080°08'0 0.0
2017-Dec-10 00:00N 26°04' W 080°08'0 0.0
2017-Dec-09 23:30N 26°04' W 080°08'0 0.0
2017-Dec-09 23:00N 26°04' W 080°08'0 0.0
2017-Dec-09 22:30N 26°04' W 080°08'0 0.0
2017-Dec-09 22:00N 26°04' W 080°08'0 0.0
2017-Dec-09 21:30N 26°04' W 080°08'0 0.0
2017-Dec-09 21:00N 26°04' W 080°08'0 0.0
2017-Dec-09 20:30N 26°04' W 080°08'0 0.0
2017-Dec-09 20:00N 26°04' W 080°08'0 0.0
2017-Dec-09 19:30N 26°04' W 080°08'0 0.0
2017-Dec-09 19:00N 26°04' W 080°08'0 0.0
2017-Dec-09 18:30N 26°04' W 080°08'0 0.0
2017-Dec-09 18:00N 26°04' W 080°08'0 0.0
2017-Dec-09 17:30N 26°04' W 080°08'0 0.0
2017-Dec-09 17:00N 26°04' W 080°08'0 0.0
2017-Dec-09 16:30N 26°04' W 080°08'0 0.0
2017-Dec-09 16:00N 26°04' W 080°08'0 0.0
2017-Dec-09 15:30N 26°04' W 080°08'0 0.0
2017-Dec-09 15:00N 26°04' W 080°08'0 0.0
2017-Dec-09 14:30N 26°04' W 080°08'0 0.0
2017-Dec-09 14:00N 26°04' W 080°08'0 0.0
2017-Dec-09 13:30N 26°04' W 080°08'0 0.0
2017-Dec-09 13:00N 26°04' W 080°08'0 0.0
2017-Dec-09 12:30N 26°04' W 080°08'0 0.0
2017-Dec-09 12:00N 26°04' W 080°08'0 0.0
2017-Dec-09 11:30N 26°04' W 080°08'0 0.0
2017-Dec-09 11:00N 26°04' W 080°08'0 0.0
2017-Dec-09 10:29N 26°04' W 080°08'0 0.0
2017-Dec-09 10:00N 26°04' W 080°08'0 0.0
2017-Dec-09 09:30N 26°04' W 080°08'0 0.0
2017-Dec-09 09:00N 26°04' W 080°08'0 0.0
2017-Dec-09 08:30N 26°04' W 080°08'0 0.0
2017-Dec-09 08:00N 26°04' W 080°08'0 0.0
2017-Dec-09 07:30N 26°04' W 080°08'0 0.0
2017-Dec-09 07:00N 26°04' W 080°08'0 0.0
2017-Dec-09 06:30N 26°04' W 080°08'0 0.0
2017-Dec-09 06:00N 26°04' W 080°08'0 0.0
2017-Dec-09 05:30N 26°04' W 080°08'0 0.0
2017-Dec-09 05:00N 26°04' W 080°08'0 0.0
2017-Dec-09 04:30N 26°04' W 080°08'0 0.0
2017-Dec-09 04:00N 26°04' W 080°08'0 0.0
2017-Dec-09 03:30N 26°04' W 080°08'0 0.0
2017-Dec-09 03:00N 26°04' W 080°08'0 0.0
2017-Dec-09 02:30N 26°04' W 080°08'0 0.0
2017-Dec-09 02:00N 26°04' W 080°08'0 0.0
2017-Dec-09 01:30N 26°04' W 080°08'0 0.0
2017-Dec-09 01:00N 26°04' W 080°08'0 0.0
2017-Dec-09 00:30N 26°04' W 080°08'0 0.0
2017-Dec-09 00:00N 26°04' W 080°08'0 0.0
2017-Dec-08 23:30N 26°04' W 080°08'0 0.0
2017-Dec-08 23:00N 26°04' W 080°08'0 0.0
2017-Dec-08 22:30N 26°04' W 080°08'0 0.0
2017-Dec-08 22:00N 26°04' W 080°08'0 0.0
2017-Dec-08 21:30N 26°04' W 080°08'0 0.0
2017-Dec-08 21:00N 26°04' W 080°08'0 0.0
2017-Dec-08 20:30N 26°04' W 080°08'0 0.0
2017-Dec-08 20:00N 26°04' W 080°08'0 0.0
2017-Dec-08 19:30N 26°04' W 080°08'0 0.0
2017-Dec-08 19:00N 26°04' W 080°08'0 0.0
2017-Dec-08 18:30N 26°04' W 080°08'0 0.0
2017-Dec-08 18:00N 26°04' W 080°08'0 0.0
2017-Dec-08 17:30N 26°04' W 080°08'0 0.0
2017-Dec-08 17:00N 26°04' W 080°08'0 0.0
2017-Dec-08 16:30N 26°04' W 080°08'0 0.0
2017-Dec-08 16:00N 26°04' W 080°08'0 0.0
2017-Dec-08 15:30N 26°04' W 080°08'0 0.0
2017-Dec-08 15:00N 26°04' W 080°08'0 0.0
2017-Dec-08 14:30N 26°04' W 080°08'0 0.0
2017-Dec-08 14:00N 26°04' W 080°08'0 0.0
2017-Dec-08 13:30N 26°04' W 080°08'0 0.0
2017-Dec-08 13:00N 26°04' W 080°08'0 0.0
2017-Dec-08 12:30N 26°04' W 080°08'0 0.0
2017-Dec-08 12:00N 26°04' W 080°08'0 0.0
2017-Dec-08 11:30N 26°04' W 080°08'0 0.0
2017-Dec-08 11:00N 26°04' W 080°08'0 0.0
2017-Dec-08 10:30N 26°04' W 080°08'0 0.0
2017-Dec-08 10:00N 26°04' W 080°08'0 0.0
2017-Dec-08 09:30N 26°04' W 080°08'0 0.0
2017-Dec-08 09:00N 26°04' W 080°08'0 0.0
2017-Dec-08 08:30N 26°04' W 080°08'0 0.0
2017-Dec-08 08:00N 26°04' W 080°08'0 0.0
2017-Dec-08 07:30N 26°04' W 080°08'0 0.0
2017-Dec-08 07:00N 26°04' W 080°08'0 0.0
2017-Dec-08 06:30N 26°04' W 080°08'0 0.0
2017-Dec-08 06:00N 26°04' W 080°08'0 0.0
2017-Dec-08 05:30N 26°04' W 080°08'0 0.0
2017-Dec-08 05:00N 26°04' W 080°08'0 0.0
2017-Dec-08 04:30N 26°04' W 080°08'0 0.0
2017-Dec-08 04:00N 26°04' W 080°08'0 0.0
2017-Dec-08 03:30N 26°04' W 080°08'0 0.0
2017-Dec-08 03:00N 26°04' W 080°08'0 0.3
2017-Dec-08 02:30N 26°04' W 080°08'3 6.8
2017-Dec-08 02:00N 26°05' W 080°04'510.3
2017-Dec-08 01:30N 26°03' W 079°60'510.1
2017-Dec-08 01:00N 26°00' W 079°55'510.4
2017-Dec-08 00:30N 25°58' W 079°49'511.0
2017-Dec-08 00:00N 25°55' W 079°44'610.8
2017-Dec-07 23:29N 25°53' W 079°39'9 0.6
2017-Dec-07 09:11N 25°45' W 079°34'1 8.1
2017-Dec-07 09:00N 25°46' W 079°35'4 8.0
2017-Dec-07 08:30N 25°48' W 079°39'4 8.0
2017-Dec-07 08:00N 25°50' W 079°42'4 7.6
2017-Dec-07 07:30N 25°53' W 079°46'4 7.6
2017-Dec-07 07:00N 25°55' W 079°49'4 7.4
2017-Dec-07 06:30N 25°57' W 079°52'4 7.7
2017-Dec-07 06:00N 25°60' W 079°55'4 7.4
2017-Dec-07 05:30N 26°02' W 079°59'4 7.4
2017-Dec-07 05:00N 26°04' W 080°02'4 9.0
2017-Dec-07 04:30N 26°06' W 080°07'2 4.2
2017-Dec-07 04:00N 26°04' W 080°08'0 0.0
2017-Dec-07 03:30N 26°04' W 080°08'0 0.0
2017-Dec-07 03:00N 26°04' W 080°08'0 0.0
2017-Dec-07 02:30N 26°04' W 080°08'0 0.0
2017-Dec-07 02:00N 26°04' W 080°08'0 0.0
2017-Dec-07 01:30N 26°04' W 080°08'0 0.0
2017-Dec-07 01:00N 26°04' W 080°08'0 0.0
2017-Dec-07 00:30N 26°04' W 080°08'0 0.0
2017-Dec-07 00:00N 26°04' W 080°08'0 0.0
2017-Dec-06 23:30N 26°04' W 080°08'0 0.0
2017-Dec-06 23:00N 26°04' W 080°08'0 0.0
2017-Dec-06 22:30N 26°04' W 080°08'3 5.3
2017-Dec-06 22:00N 26°06' W 080°06'4 7.8
2017-Dec-06 21:30N 26°04' W 080°02'510.8
2017-Dec-06 21:00N 26°03' W 079°56'  
2017-Dec-03 09:02N 25°52' W 079°38'1 7.2
2017-Dec-03 08:58N 25°53' W 079°38'4 7.0
2017-Dec-03 08:27N 25°54' W 079°42'3 6.6
2017-Dec-03 08:00N 25°56' W 079°45'3 6.5
2017-Dec-03 07:30N 25°57' W 079°48'3 6.7
2017-Dec-03 07:00N 25°59' W 079°51'3 6.6
2017-Dec-03 06:30N 26°01' W 079°54'3 6.1
2017-Dec-03 06:00N 26°02' W 079°57'3 6.1
2017-Dec-03 05:30N 26°04' W 080°00'3 7.0
2017-Dec-03 05:00N 26°05' W 080°04'3 6.0
2017-Dec-03 04:30N 26°04' W 080°07'1 2.3
2017-Dec-03 04:00N 26°04' W 080°08'0 0.0
2017-Dec-03 03:30N 26°04' W 080°08'0 0.0
2017-Dec-03 03:00N 26°04' W 080°08'0 0.0
2017-Dec-03 02:30N 26°04' W 080°08'0 0.0
2017-Dec-03 02:00N 26°04' W 080°08'0 0.0
2017-Dec-03 01:30N 26°04' W 080°08'0 0.0
2017-Dec-03 01:00N 26°04' W 080°08'0 0.0
2017-Dec-03 00:30N 26°04' W 080°08'0 0.0
2017-Dec-03 00:00N 26°04' W 080°08'0 0.0
2017-Dec-02 23:30N 26°04' W 080°08'0 0.0
2017-Dec-02 23:00N 26°04' W 080°08'0 0.0
2017-Dec-02 22:30N 26°04' W 080°08'0 0.0
2017-Dec-02 22:00N 26°04' W 080°08'0 0.0
2017-Dec-02 21:30N 26°04' W 080°08'0 0.0
2017-Dec-02 21:00N 26°04' W 080°08'0 0.0
2017-Dec-02 20:30N 26°04' W 080°08'0 0.0
2017-Dec-02 20:00N 26°04' W 080°08'0 0.0
2017-Dec-02 19:30N 26°04' W 080°08'0 0.0
2017-Dec-02 19:00N 26°04' W 080°08'0 0.0
2017-Dec-02 18:30N 26°04' W 080°08'0 0.0
2017-Dec-02 18:01N 26°04' W 080°08'0 0.0
2017-Dec-02 17:30N 26°04' W 080°08'0 0.0
2017-Dec-02 17:00N 26°04' W 080°08'0 0.0
2017-Dec-02 16:30N 26°04' W 080°08'0 0.0
2017-Dec-02 16:00N 26°04' W 080°08'0 0.0
2017-Dec-02 15:30N 26°04' W 080°08'0 0.0
2017-Dec-02 15:00N 26°04' W 080°08'0 0.0
2017-Dec-02 14:30N 26°04' W 080°08'2 4.1
2017-Dec-02 14:00N 26°06' W 080°07'1 2.6
2017-Dec-02 13:30N 26°06' W 080°05'1 1.8
2017-Dec-02 13:00N 26°06' W 080°04'4 8.6
2017-Dec-02 12:30N 26°07' W 079°60'5 9.3
2017-Dec-02 12:00N 26°09' W 079°55'4 8.9
2017-Dec-02 11:30N 26°10' W 079°50'5 8.9
2017-Dec-02 11:00N 26°10' W 079°45'5 8.4
2017-Dec-02 10:27N 26°12' W 079°40'2 0.2
2017-Dec-01 21:09N 26°13' W 079°42'2 9.3
2017-Dec-01 20:59N 26°13' W 079°43'4 9.2
2017-Dec-01 20:30N 26°11' W 079°48'4 9.1
2017-Dec-01 20:00N 26°10' W 079°52'5 9.0
2017-Dec-01 19:30N 26°08' W 079°57'5 9.0
2017-Dec-01 19:00N 26°06' W 080°02'5 9.0
2017-Dec-01 18:30N 26°06' W 080°07'2 4.1
2017-Dec-01 18:00N 26°04' W 080°08'0 0.0
2017-Dec-01 17:30N 26°04' W 080°08'0 0.0
2017-Dec-01 17:00N 26°04' W 080°08'0 0.0
2017-Dec-01 16:30N 26°04' W 080°08'0 0.0
2017-Dec-01 16:00N 26°04' W 080°08'0 0.0
2017-Dec-01 15:30N 26°04' W 080°08'0 0.0
2017-Dec-01 15:00N 26°04' W 080°08'0 0.0
2017-Dec-01 14:30N 26°04' W 080°08'0 0.0
2017-Dec-01 14:00N 26°04' W 080°08'0 0.0
2017-Dec-01 13:30N 26°04' W 080°08'0 0.0
2017-Dec-01 13:00N 26°04' W 080°08'  

Dump ship's entire track history